createdAt,value
2015-12-30T00:00:04.731Z,727.02
2015-12-30T00:00:21.638Z,726.99
2015-12-30T00:00:36.825Z,726.97
2015-12-30T00:01:06.547Z,727.01
2015-12-30T00:01:22.453Z,726.98
2015-12-30T00:01:38.078Z,726.97
2015-12-30T00:01:53.672Z,726.97
2015-12-30T00:02:23.158Z,727.02
2015-12-30T00:02:38.674Z,727.01
2015-12-30T00:02:54.658Z,727.01
2015-12-30T00:03:10.224Z,726.98
2015-12-30T00:03:26.786Z,727
2015-12-30T00:03:42.724Z,727
2015-12-30T00:03:58.083Z,726.97
2015-12-30T00:04:14.039Z,726.97
2015-12-30T00:04:30.133Z,726.94
2015-12-30T00:04:59.758Z,726.93
2015-12-30T00:05:15.791Z,726.94
2015-12-30T00:06:00.291Z,726.92
2015-12-30T00:06:16.342Z,726.92
2015-12-30T00:06:31.811Z,726.93
2015-12-30T00:06:47.655Z,726.95
2015-12-30T00:07:03.672Z,726.91
2015-12-30T00:07:19.688Z,726.88
2015-12-30T00:07:34.797Z,726.88
2015-12-30T00:07:50.328Z,726.85
2015-12-30T00:08:06.113Z,726.89
2015-12-30T00:08:22.191Z,726.95
2015-12-30T00:08:54.394Z,726.93
2015-12-30T00:09:10.052Z,726.93
2015-12-30T00:09:25.724Z,726.9
2015-12-30T00:09:40.849Z,726.95
2015-12-30T00:09:56.865Z,726.94
2015-12-30T00:10:12.727Z,726.99
2015-12-30T00:10:28.040Z,726.88
2015-12-30T00:10:43.977Z,726.97
2015-12-30T00:10:59.899Z,726.91
2015-12-30T00:11:15.527Z,726.95
2015-12-30T00:11:31.543Z,726.96
2015-12-30T00:12:00.699Z,726.91
2015-12-30T00:12:16.763Z,726.89
2015-12-30T00:12:32.576Z,726.97
2015-12-30T00:12:48.357Z,726.87
2015-12-30T00:13:03.920Z,726.91
2015-12-30T00:13:19.594Z,726.93
2015-12-30T00:13:34.985Z,726.95
2015-12-30T00:13:50.485Z,726.91
2015-12-30T00:14:06.048Z,726.91
2015-12-30T00:14:21.238Z,726.9
2015-12-30T00:14:36.801Z,726.92
2015-12-30T00:14:52.629Z,726.9
2015-12-30T00:15:08.769Z,726.93
2015-12-30T00:15:24.443Z,726.84
2015-12-30T00:15:40.084Z,726.88
2015-12-30T00:15:55.568Z,726.95
2015-12-30T00:16:11.474Z,726.9
2015-12-30T00:16:27.524Z,726.85
2015-12-30T00:16:43.477Z,726.92
2015-12-30T00:16:59.352Z,726.89
2015-12-30T00:17:14.902Z,726.88
2015-12-30T00:17:30.574Z,726.91
2015-12-30T00:17:46.199Z,726.88
2015-12-30T00:18:02.012Z,726.89
2015-12-30T00:18:17.421Z,726.85
2015-12-30T00:18:32.890Z,726.92
2015-12-30T00:18:48.515Z,726.92
2015-12-30T00:19:04.624Z,726.84
2015-12-30T00:19:20.283Z,726.85
2015-12-30T00:19:35.877Z,726.83
2015-12-30T00:19:52.049Z,726.89
2015-12-30T00:20:07.471Z,726.85
2015-12-30T00:20:23.052Z,726.9
2015-12-30T00:20:38.505Z,726.9
2015-12-30T00:20:54.161Z,726.91
2015-12-30T00:21:12.880Z,726.85
2015-12-30T00:21:28.523Z,726.89
2015-12-30T00:21:44.148Z,726.84
2015-12-30T00:21:59.773Z,726.88
2015-12-30T00:22:15.054Z,726.87
2015-12-30T00:22:30.557Z,726.81
2015-12-30T00:22:59.994Z,726.82
2015-12-30T00:23:15.541Z,726.82
2015-12-30T00:23:30.997Z,726.79
2015-12-30T00:23:46.810Z,726.83
2015-12-30T00:24:02.747Z,726.85
2015-12-30T00:24:18.341Z,726.8
2015-12-30T00:24:33.969Z,726.76
2015-12-30T00:24:49.594Z,726.82
2015-12-30T00:25:05.110Z,726.76
2015-12-30T00:25:20.641Z,726.77
2015-12-30T00:25:36.002Z,726.75
2015-12-30T00:25:51.627Z,726.76
2015-12-30T00:26:07.159Z,726.75
2015-12-30T00:26:23.237Z,726.74
2015-12-30T00:26:38.896Z,726.79
2015-12-30T00:26:54.599Z,726.81
2015-12-30T00:27:10.240Z,726.8
2015-12-30T00:27:25.802Z,726.81
2015-12-30T00:27:41.507Z,726.8
2015-12-30T00:27:57.320Z,726.82
2015-12-30T00:28:27.414Z,726.82
2015-12-30T00:28:42.870Z,726.88
2015-12-30T00:28:58.620Z,726.8
2015-12-30T00:29:14.323Z,726.82
2015-12-30T00:29:29.120Z,726.85
2015-12-30T00:29:44.739Z,726.86
2015-12-30T00:30:00.333Z,726.82
2015-12-30T00:30:16.020Z,726.84
2015-12-30T00:30:32.557Z,726.84
2015-12-30T00:30:48.229Z,726.84
2015-12-30T00:31:03.401Z,726.8
2015-12-30T00:31:18.729Z,726.86
2015-12-30T00:31:34.846Z,726.85
2015-12-30T00:31:49.971Z,726.81
2015-12-30T00:32:05.580Z,726.8
2015-12-30T00:32:20.721Z,726.83
2015-12-30T00:32:36.196Z,726.78
2015-12-30T00:32:51.837Z,726.79
2015-12-30T00:33:08.118Z,726.82
2015-12-30T00:33:23.806Z,726.8
2015-12-30T00:33:39.797Z,726.74
2015-12-30T00:33:55.718Z,726.81
2015-12-30T00:34:11.484Z,726.83
2015-12-30T00:34:26.906Z,726.85
2015-12-30T00:34:42.559Z,726.78
2015-12-30T00:34:58.528Z,726.83
2015-12-30T00:35:14.544Z,726.79
2015-12-30T00:35:29.903Z,726.74
2015-12-30T00:35:45.496Z,726.73
2015-12-30T00:36:01.464Z,726.75
2015-12-30T00:36:16.668Z,726.71
2015-12-30T00:36:32.246Z,726.8
2015-12-30T00:36:47.759Z,726.72
2015-12-30T00:37:03.119Z,726.75
2015-12-30T00:37:19.009Z,726.72
2015-12-30T00:37:34.587Z,726.77
2015-12-30T00:37:50.336Z,726.75
2015-12-30T00:38:06.493Z,726.8
2015-12-30T00:38:22.102Z,726.76
2015-12-30T00:38:37.508Z,726.68
2015-12-30T00:38:52.959Z,726.68
2015-12-30T00:39:08.538Z,726.69
2015-12-30T00:39:24.491Z,726.71
2015-12-30T00:39:39.913Z,726.7
2015-12-30T00:39:55.586Z,726.71
2015-12-30T00:40:12.227Z,726.68
2015-12-30T00:40:27.618Z,726.67
2015-12-30T00:40:43.212Z,726.68
2015-12-30T00:40:58.853Z,726.76
2015-12-30T00:41:14.462Z,726.72
2015-12-30T00:41:29.806Z,726.73
2015-12-30T00:41:45.729Z,726.77
2015-12-30T00:42:01.417Z,726.74
2015-12-30T00:42:17.026Z,726.68
2015-12-30T00:42:32.713Z,726.7
2015-12-30T00:42:48.730Z,726.73
2015-12-30T00:43:05.136Z,726.7
2015-12-30T00:43:20.511Z,726.68
2015-12-30T00:43:35.574Z,726.7
2015-12-30T00:43:51.310Z,726.76
2015-12-30T00:44:06.498Z,726.74
2015-12-30T00:44:21.873Z,726.69
2015-12-30T00:44:36.966Z,726.7
2015-12-30T00:44:52.749Z,726.61
2015-12-30T00:45:08.171Z,726.65
2015-12-30T00:45:23.467Z,726.67
2015-12-30T00:45:40.296Z,726.67
2015-12-30T00:45:55.813Z,726.69
2015-12-30T00:46:10.813Z,726.68
2015-12-30T00:46:26.704Z,726.66
2015-12-30T00:46:42.329Z,726.74
2015-12-30T00:46:57.846Z,726.71
2015-12-30T00:47:12.628Z,726.7
2015-12-30T00:47:28.362Z,726.69
2015-12-30T00:47:43.471Z,726.6
2015-12-30T00:47:58.895Z,726.66
2015-12-30T00:48:14.692Z,726.66
2015-12-30T00:48:30.927Z,726.68
2015-12-30T00:48:45.864Z,726.64
2015-12-30T00:49:01.413Z,726.72
2015-12-30T00:49:17.288Z,726.66
2015-12-30T00:49:32.804Z,726.65
2015-12-30T00:49:48.804Z,726.66
2015-12-30T00:50:04.790Z,726.65
2015-12-30T00:50:19.915Z,726.69
2015-12-30T00:50:35.384Z,726.63
2015-12-30T00:50:51.277Z,726.64
2015-12-30T00:51:06.762Z,726.63
2015-12-30T00:51:22.543Z,726.64
2015-12-30T00:51:37.277Z,726.65
2015-12-30T00:51:52.577Z,726.61
2015-12-30T00:52:07.858Z,726.64
2015-12-30T00:52:23.968Z,726.62
2015-12-30T00:52:39.687Z,726.59
2015-12-30T00:52:55.174Z,726.67
2015-12-30T00:53:11.111Z,726.59
2015-12-30T00:53:26.236Z,726.64
2015-12-30T00:53:41.861Z,726.63
2015-12-30T00:53:57.223Z,726.59
2015-12-30T00:54:12.645Z,726.56
2015-12-30T00:54:28.285Z,726.57
2015-12-30T00:54:43.707Z,726.59
2015-12-30T00:54:59.116Z,726.51
2015-12-30T00:55:14.726Z,726.56
2015-12-30T00:55:30.320Z,726.55
2015-12-30T00:55:45.851Z,726.57
2015-12-30T00:56:01.323Z,726.53
2015-12-30T00:56:16.994Z,726.58
2015-12-30T00:56:32.838Z,726.63
2015-12-30T00:56:48.651Z,726.61
2015-12-30T00:57:03.732Z,726.54
2015-12-30T00:57:19.122Z,726.57
2015-12-30T00:57:34.826Z,726.6
2015-12-30T00:57:50.122Z,726.63
2015-12-30T00:58:06.047Z,726.53
2015-12-30T00:58:21.641Z,726.57
2015-12-30T00:58:36.844Z,726.54
2015-12-30T00:58:52.297Z,726.58
2015-12-30T00:59:07.877Z,726.45
2015-12-30T00:59:23.799Z,726.58
2015-12-30T00:59:39.377Z,726.53
2015-12-30T00:59:54.721Z,726.55
2015-12-30T01:00:54.099Z,726.51
2015-12-30T01:01:09.196Z,726.48
2015-12-30T01:01:24.696Z,726.52
2015-12-30T01:01:40.493Z,726.51
2015-12-30T01:01:55.524Z,726.56
2015-12-30T01:02:10.465Z,726.54
2015-12-30T01:02:26.699Z,726.46
2015-12-30T01:02:41.996Z,726.58
2015-12-30T01:02:57.371Z,726.5
2015-12-30T01:03:12.967Z,726.54
2015-12-30T01:03:28.560Z,726.54
2015-12-30T01:03:43.623Z,726.52
2015-12-30T01:03:59.170Z,726.49
2015-12-30T01:04:14.673Z,726.52
2015-12-30T01:04:30.345Z,726.52
2015-12-30T01:04:46.563Z,726.46
2015-12-30T01:05:01.423Z,726.47
2015-12-30T01:05:17.004Z,726.51
2015-12-30T01:05:32.519Z,726.49
2015-12-30T01:05:48.363Z,726.45
2015-12-30T01:06:04.191Z,726.52
2015-12-30T01:06:19.882Z,726.49
2015-12-30T01:06:35.522Z,726.46
2015-12-30T01:06:50.960Z,726.54
2015-12-30T01:07:06.022Z,726.52
2015-12-30T01:07:21.134Z,726.48
2015-12-30T01:07:36.712Z,726.49
2015-12-30T01:07:51.821Z,726.44
2015-12-30T01:08:07.446Z,726.5
2015-12-30T01:08:22.637Z,726.46
2015-12-30T01:08:38.153Z,726.49
2015-12-30T01:08:53.653Z,726.54
2015-12-30T01:09:09.263Z,726.4
2015-12-30T01:09:25.280Z,726.38
2015-12-30T01:09:40.796Z,726.47
2015-12-30T01:09:56.390Z,726.48
2015-12-30T01:10:11.687Z,726.51
2015-12-30T01:10:27.113Z,726.47
2015-12-30T01:10:42.456Z,726.51
2015-12-30T01:10:58.206Z,726.46
2015-12-30T01:11:14.269Z,726.42
2015-12-30T01:11:29.819Z,726.42
2015-12-30T01:11:46.506Z,726.43
2015-12-30T01:12:02.022Z,726.39
2015-12-30T01:12:17.664Z,726.41
2015-12-30T01:12:33.133Z,726.41
2015-12-30T01:12:49.305Z,726.38
2015-12-30T01:13:04.352Z,726.41
2015-12-30T01:13:20.260Z,726.45
2015-12-30T01:13:35.573Z,726.38
2015-12-30T01:13:51.120Z,726.48
2015-12-30T01:14:06.682Z,726.44
2015-12-30T01:14:22.123Z,726.4
2015-12-30T01:14:37.404Z,726.43
2015-12-30T01:14:53.091Z,726.4
2015-12-30T01:15:08.654Z,726.35
2015-12-30T01:15:24.266Z,726.39
2015-12-30T01:15:53.766Z,726.42
2015-12-30T01:16:09.501Z,726.39
2015-12-30T01:16:25.237Z,726.41
2015-12-30T01:16:40.471Z,726.41
2015-12-30T01:16:56.034Z,726.33
2015-12-30T01:17:11.128Z,726.42
2015-12-30T01:17:26.662Z,726.45
2015-12-30T01:17:42.271Z,726.41
2015-12-30T01:17:57.756Z,726.4
2015-12-30T01:18:12.849Z,726.4
2015-12-30T01:18:28.197Z,726.41
2015-12-30T01:18:46.916Z,726.4
2015-12-30T01:19:02.260Z,726.43
2015-12-30T01:19:17.869Z,726.36
2015-12-30T01:19:33.605Z,726.4
2015-12-30T01:19:49.074Z,726.38
2015-12-30T01:20:04.308Z,726.39
2015-12-30T01:20:20.433Z,726.38
2015-12-30T01:20:35.655Z,726.31
2015-12-30T01:20:51.311Z,726.35
2015-12-30T01:21:06.218Z,726.36
2015-12-30T01:21:21.874Z,726.3
2015-12-30T01:21:37.189Z,726.35
2015-12-30T01:22:26.473Z,726.4
2015-12-30T01:22:42.488Z,726.39
2015-12-30T01:22:58.660Z,726.35
2015-12-30T01:23:13.473Z,726.32
2015-12-30T01:23:29.132Z,726.36
2015-12-30T01:23:44.319Z,726.3
2015-12-30T01:24:00.023Z,726.29
2015-12-30T01:24:15.413Z,726.39
2015-12-30T01:24:30.821Z,726.39
2015-12-30T01:24:46.025Z,726.38
2015-12-30T01:25:01.681Z,726.37
2015-12-30T01:25:17.509Z,726.36
2015-12-30T01:25:33.106Z,726.42
2015-12-30T01:25:48.168Z,726.4
2015-12-30T01:26:03.293Z,726.33
2015-12-30T01:26:18.918Z,726.31
2015-12-30T01:26:34.327Z,726.35
2015-12-30T01:26:50.468Z,726.32
2015-12-30T01:27:06.093Z,726.34
2015-12-30T01:27:35.315Z,726.31
2015-12-30T01:27:50.565Z,726.36
2015-12-30T01:28:06.674Z,726.4
2015-12-30T01:28:22.284Z,726.31
2015-12-30T01:28:37.114Z,726.33
2015-12-30T01:28:52.567Z,726.31
2015-12-30T01:29:08.129Z,726.37
2015-12-30T01:29:23.489Z,726.33
2015-12-30T01:29:38.790Z,726.36
2015-12-30T01:29:54.321Z,726.3
2015-12-30T01:30:10.071Z,726.29
2015-12-30T01:30:25.930Z,726.35
2015-12-30T01:30:41.635Z,726.33
2015-12-30T01:30:56.823Z,726.33
2015-12-30T01:31:12.135Z,726.37
2015-12-30T01:31:27.870Z,726.34
2015-12-30T01:31:43.201Z,726.39
2015-12-30T01:31:58.638Z,726.31
2015-12-30T01:32:14.326Z,726.36
2015-12-30T01:32:30.138Z,726.31
2015-12-30T01:32:45.468Z,726.34
2015-12-30T01:33:01.172Z,726.34
2015-12-30T01:33:16.672Z,726.32
2015-12-30T01:33:32.078Z,726.35
2015-12-30T01:33:50.628Z,726.26
2015-12-30T01:34:05.831Z,726.32
2015-12-30T01:34:21.081Z,726.29
2015-12-30T01:34:50.678Z,726.33
2015-12-30T01:35:05.771Z,726.27
2015-12-30T01:35:20.803Z,726.3
2015-12-30T01:35:36.474Z,726.32
2015-12-30T01:35:51.727Z,726.26
2015-12-30T01:36:23.587Z,726.25
2015-12-30T01:36:39.134Z,726.28
2015-12-30T01:36:54.526Z,726.31
2015-12-30T01:37:10.323Z,726.21
2015-12-30T01:37:25.683Z,726.28
2015-12-30T01:37:41.058Z,726.31
2015-12-30T01:37:56.842Z,726.26
2015-12-30T01:38:15.764Z,726.31
2015-12-30T01:38:31.701Z,726.3
2015-12-30T01:38:46.985Z,726.31
2015-12-30T01:39:02.220Z,726.31
2015-12-30T01:39:17.642Z,726.29
2015-12-30T01:39:32.876Z,726.29
2015-12-30T01:39:48.347Z,726.29
2015-12-30T01:40:03.831Z,726.26
2015-12-30T01:40:19.237Z,726.22
2015-12-30T01:40:34.972Z,726.27
2015-12-30T01:40:50.100Z,726.3
2015-12-30T01:41:05.475Z,726.32
2015-12-30T01:41:21.303Z,726.29
2015-12-30T01:41:36.365Z,726.31
2015-12-30T01:41:51.540Z,726.29
2015-12-30T01:42:06.806Z,726.28
2015-12-30T01:42:22.431Z,726.27
2015-12-30T01:42:38.040Z,726.31
2015-12-30T01:42:53.356Z,726.33
2015-12-30T01:43:08.981Z,726.33
2015-12-30T01:43:24.137Z,726.35
2015-12-30T01:43:39.731Z,726.31
2015-12-30T01:43:55.234Z,726.31
2015-12-30T01:44:10.734Z,726.27
2015-12-30T01:44:26.031Z,726.28
2015-12-30T01:44:41.781Z,726.3
2015-12-30T01:44:57.048Z,726.3
2015-12-30T01:45:12.736Z,726.28
2015-12-30T01:45:31.111Z,726.25
2015-12-30T01:45:47.392Z,726.29
2015-12-30T01:46:02.583Z,726.32
2015-12-30T01:46:17.598Z,726.25
2015-12-30T01:46:33.723Z,726.27
2015-12-30T01:46:49.286Z,726.22
2015-12-30T01:47:04.367Z,726.26
2015-12-30T01:47:19.898Z,726.3
2015-12-30T01:47:34.929Z,726.32
2015-12-30T01:47:50.539Z,726.24
2015-12-30T01:48:05.651Z,726.26
2015-12-30T01:48:22.089Z,726.25
2015-12-30T01:48:37.573Z,726.23
2015-12-30T01:49:07.076Z,726.29
2015-12-30T01:49:23.154Z,726.27
2015-12-30T01:49:38.154Z,726.27
2015-12-30T01:49:53.592Z,726.29
2015-12-30T01:50:08.531Z,726.29
2015-12-30T01:50:24.109Z,726.26
2015-12-30T01:50:39.422Z,726.28
2015-12-30T01:50:54.484Z,726.24
2015-12-30T01:51:09.300Z,726.31
2015-12-30T01:51:24.440Z,726.31
2015-12-30T01:51:40.050Z,726.36
2015-12-30T01:52:08.740Z,726.27
2015-12-30T01:52:24.350Z,726.27
2015-12-30T01:52:39.740Z,726.3
2015-12-30T01:52:54.896Z,726.27
2015-12-30T01:53:10.320Z,726.26
2015-12-30T01:53:26.617Z,726.23
2015-12-30T01:53:42.445Z,726.25
2015-12-30T01:53:57.539Z,726.24
2015-12-30T01:54:13.401Z,726.26
2015-12-30T01:54:28.745Z,726.3
2015-12-30T01:54:44.073Z,726.33
2015-12-30T01:55:42.873Z,726.28
2015-12-30T01:55:58.108Z,726.25
2015-12-30T01:56:13.704Z,726.19
2015-12-30T01:56:29.376Z,726.23
2015-12-30T01:56:44.532Z,726.26
2015-12-30T01:56:59.689Z,726.29
2015-12-30T01:57:14.925Z,726.21
2015-12-30T01:57:30.222Z,726.25
2015-12-30T01:57:45.144Z,726.15
2015-12-30T01:57:59.909Z,726.19
2015-12-30T01:58:15.756Z,726.26
2015-12-30T01:58:31.178Z,726.22
2015-12-30T01:58:46.522Z,726.23
2015-12-30T01:59:01.787Z,726.25
2015-12-30T01:59:17.384Z,726.25
2015-12-30T01:59:32.915Z,726.14
2015-12-30T01:59:47.869Z,726.11
2015-12-30T02:00:03.087Z,726.17
2015-12-30T02:00:19.121Z,726.15
2015-12-30T02:00:34.324Z,726.19
2015-12-30T02:00:49.167Z,726.2
2015-12-30T02:01:07.980Z,726.15
2015-12-30T02:01:23.124Z,726.2
2015-12-30T02:01:38.441Z,726.18
2015-12-30T02:01:53.742Z,726.15
2015-12-30T02:02:09.007Z,726.19
2015-12-30T02:02:24.901Z,726.21
2015-12-30T02:02:40.854Z,726.19
2015-12-30T02:03:00.042Z,726.22
2015-12-30T02:03:16.591Z,726.19
2015-12-30T02:03:31.951Z,726.33
2015-12-30T02:03:46.873Z,726.27
2015-12-30T02:04:16.501Z,726.14
2015-12-30T02:04:31.954Z,726.09
2015-12-30T02:04:47.594Z,726.21
2015-12-30T02:05:02.548Z,726.1
2015-12-30T02:05:17.346Z,726.16
2015-12-30T02:05:32.550Z,726.05
2015-12-30T02:05:47.846Z,726.2
2015-12-30T02:06:03.503Z,726.19
2015-12-30T02:06:18.803Z,726.19
2015-12-30T02:06:47.928Z,726.18
2015-12-30T02:07:03.865Z,726.21
2015-12-30T02:07:19.071Z,726.25
2015-12-30T02:07:34.212Z,726.28
2015-12-30T02:07:50.540Z,726.26
2015-12-30T02:08:06.446Z,726.16
2015-12-30T02:08:23.104Z,726.26
2015-12-30T02:08:38.276Z,726.19
2015-12-30T02:08:53.620Z,726.13
2015-12-30T02:09:09.745Z,726.22
2015-12-30T02:09:25.046Z,726.23
2015-12-30T02:09:41.249Z,726.24
2015-12-30T02:09:56.765Z,726.24
2015-12-30T02:10:11.983Z,726.24
2015-12-30T02:10:27.360Z,726.19
2015-12-30T02:10:43.282Z,726.24
2015-12-30T02:10:58.360Z,726.24
2015-12-30T02:11:13.642Z,726.25
2015-12-30T02:11:28.895Z,726.2
2015-12-30T02:11:44.145Z,726.22
2015-12-30T02:11:59.692Z,726.2
2015-12-30T02:12:18.926Z,726.17
2015-12-30T02:12:34.835Z,726.26
2015-12-30T02:12:49.913Z,726.22
2015-12-30T02:13:05.710Z,726.23
2015-12-30T02:13:20.991Z,726.2
2015-12-30T02:13:36.087Z,726.14
2015-12-30T02:13:51.572Z,726.23
2015-12-30T02:14:07.743Z,726.24
2015-12-30T02:14:22.853Z,726.15
2015-12-30T02:14:37.996Z,726.17
2015-12-30T02:14:53.340Z,726.1
2015-12-30T02:15:09.168Z,726.23
2015-12-30T02:15:24.887Z,726.14
2015-12-30T02:15:40.031Z,726.23
2015-12-30T02:15:58.312Z,726.24
2015-12-30T02:16:13.531Z,726.24
2015-12-30T02:16:28.909Z,726.27
2015-12-30T02:16:57.815Z,726.21
2015-12-30T02:17:13.471Z,726.16
2015-12-30T02:17:28.926Z,726.25
2015-12-30T02:17:44.786Z,726.22
2015-12-30T02:18:00.036Z,726.13
2015-12-30T02:18:15.817Z,726.24
2015-12-30T02:18:31.289Z,726.18
2015-12-30T02:18:46.898Z,726.17
2015-12-30T02:19:02.789Z,726.25
2015-12-30T02:19:18.414Z,726.03
2015-12-30T02:19:47.510Z,726.15
2015-12-30T02:20:02.823Z,726.22
2015-12-30T02:20:18.245Z,726.13
2015-12-30T02:20:47.559Z,726.21
2015-12-30T02:21:02.762Z,726.16
2015-12-30T02:21:18.091Z,726.12
2015-12-30T02:21:33.825Z,726.15
2015-12-30T02:21:49.188Z,726.23
2015-12-30T02:22:04.532Z,726.16
2015-12-30T02:22:20.032Z,726.05
2015-12-30T02:22:35.032Z,726.19
2015-12-30T02:22:50.440Z,726.07
2015-12-30T02:23:05.987Z,726.09
2015-12-30T02:23:22.690Z,726.2
2015-12-30T02:23:37.940Z,726.17
2015-12-30T02:23:53.818Z,726.13
2015-12-30T02:24:09.006Z,726.08
2015-12-30T02:24:24.631Z,726.14
2015-12-30T02:24:40.008Z,726.2
2015-12-30T02:24:55.117Z,726.07
2015-12-30T02:25:11.195Z,726.11
2015-12-30T02:25:26.914Z,726.16
2015-12-30T02:25:41.964Z,726.16
2015-12-30T02:25:57.355Z,726.2
2015-12-30T02:26:12.886Z,726.13
2015-12-30T02:26:28.230Z,726.07
2015-12-30T02:26:43.545Z,726.11
2015-12-30T02:26:58.748Z,726.07
2015-12-30T02:27:14.561Z,726.16
2015-12-30T02:27:29.717Z,726.2
2015-12-30T02:27:45.017Z,726.14
2015-12-30T02:28:14.001Z,726.17
2015-12-30T02:28:29.907Z,726.05
2015-12-30T02:28:45.207Z,725.98
2015-12-30T02:29:00.489Z,726.09
2015-12-30T02:29:15.504Z,726.11
2015-12-30T02:29:31.504Z,726.17
2015-12-30T02:29:47.053Z,726.17
2015-12-30T02:30:02.116Z,726.12
2015-12-30T02:30:18.585Z,726.11
2015-12-30T02:30:33.742Z,726.08
2015-12-30T02:30:49.041Z,726.08
2015-12-30T02:31:07.541Z,726.21
2015-12-30T02:31:26.323Z,726.08
2015-12-30T02:31:41.979Z,726.15
2015-12-30T02:31:57.466Z,726.12
2015-12-30T02:32:15.201Z,725.87
2015-12-30T02:32:30.576Z,725.93
2015-12-30T02:32:45.326Z,726.02
2015-12-30T02:33:00.515Z,726.1
2015-12-30T02:33:16.468Z,726.12
2015-12-30T02:33:31.656Z,726.04
2015-12-30T02:33:47.250Z,725.97
2015-12-30T02:34:02.721Z,726.08
2015-12-30T02:34:18.862Z,726.02
2015-12-30T02:34:34.253Z,726.09
2015-12-30T02:34:49.784Z,726.08
2015-12-30T02:35:05.052Z,726.05
2015-12-30T02:35:20.443Z,726.11
2015-12-30T02:35:37.021Z,726.19
2015-12-30T02:35:52.115Z,726.1
2015-12-30T02:36:07.492Z,726.06
2015-12-30T02:36:37.195Z,726.1
2015-12-30T02:36:52.679Z,726.03
2015-12-30T02:37:22.433Z,726.1
2015-12-30T02:37:37.996Z,726.12
2015-12-30T02:37:53.793Z,726.18
2015-12-30T02:38:09.029Z,726.11
2015-12-30T02:38:24.123Z,726.05
2015-12-30T02:38:42.998Z,726.11
2015-12-30T02:38:58.485Z,726.07
2015-12-30T02:39:13.407Z,726.06
2015-12-30T02:39:28.845Z,726.07
2015-12-30T02:39:44.438Z,726.04
2015-12-30T02:40:00.020Z,726.09
2015-12-30T02:40:15.285Z,725.96
2015-12-30T02:40:30.535Z,726.07
2015-12-30T02:40:46.473Z,725.92
2015-12-30T02:41:01.601Z,725.94
2015-12-30T02:41:17.116Z,726
2015-12-30T02:41:32.241Z,725.95
2015-12-30T02:41:47.413Z,726.02
2015-12-30T02:42:01.712Z,725.99
2015-12-30T02:42:17.056Z,726.06
2015-12-30T02:42:32.603Z,726
2015-12-30T02:43:01.824Z,726
2015-12-30T02:43:17.512Z,726.06
2015-12-30T02:43:32.668Z,726.04
2015-12-30T02:43:47.981Z,726.06
2015-12-30T02:44:03.436Z,726.03
2015-12-30T02:44:18.889Z,726.02
2015-12-30T02:44:34.311Z,726.01
2015-12-30T02:44:49.873Z,726.07
2015-12-30T02:45:05.439Z,726.06
2015-12-30T02:45:20.908Z,725.95
2015-12-30T02:45:36.189Z,725.96
2015-12-30T02:45:51.048Z,726.01
2015-12-30T02:46:06.567Z,726.01
2015-12-30T02:46:21.817Z,726.01
2015-12-30T02:46:36.926Z,726.09
2015-12-30T02:46:52.098Z,725.98
2015-12-30T02:47:07.397Z,725.98
2015-12-30T02:47:22.303Z,725.95
2015-12-30T02:47:51.334Z,726.04
2015-12-30T02:48:07.244Z,726.04
2015-12-30T02:48:23.009Z,726.01
2015-12-30T02:48:38.119Z,726.06
2015-12-30T02:48:53.197Z,726.05
2015-12-30T02:49:08.403Z,726.08
2015-12-30T02:49:24.262Z,726.04
2015-12-30T02:49:39.887Z,726.07
2015-12-30T02:49:55.184Z,726.02
2015-12-30T02:50:10.484Z,725.96
2015-12-30T02:50:26.250Z,725.96
2015-12-30T02:50:41.375Z,725.98
2015-12-30T02:50:57.047Z,725.97
2015-12-30T02:51:12.659Z,725.99
2015-12-30T02:51:27.987Z,725.98
2015-12-30T02:51:44.675Z,725.93
2015-12-30T02:51:59.831Z,725.96
2015-12-30T02:52:18.614Z,726.02
2015-12-30T02:52:47.880Z,725.86
2015-12-30T02:53:03.020Z,725.84
2015-12-30T02:53:18.133Z,725.83
2015-12-30T02:53:33.305Z,725.88
2015-12-30T02:53:48.445Z,725.91
2015-12-30T02:54:03.695Z,725.9
2015-12-30T02:54:19.433Z,725.9
2015-12-30T02:54:34.542Z,725.99
2015-12-30T02:55:03.401Z,725.92
2015-12-30T02:55:19.014Z,725.97
2015-12-30T02:55:33.967Z,725.92
2015-12-30T02:55:49.154Z,725.93
2015-12-30T02:56:18.360Z,725.93
2015-12-30T02:56:34.032Z,725.85
2015-12-30T02:56:49.907Z,726
2015-12-30T02:57:05.251Z,725.98
2015-12-30T02:57:20.566Z,725.78
2015-12-30T02:57:50.112Z,725.95
2015-12-30T02:58:05.269Z,725.87
2015-12-30T02:58:20.819Z,726
2015-12-30T02:58:36.147Z,725.95
2015-12-30T02:58:51.553Z,725.96
2015-12-30T02:59:07.194Z,726.06
2015-12-30T02:59:22.993Z,725.95
2015-12-30T02:59:38.587Z,725.94
2015-12-30T02:59:54.056Z,725.94
2015-12-30T03:00:11.728Z,725.95
2015-12-30T03:00:27.042Z,725.97
2015-12-30T03:00:42.480Z,725.83
2015-12-30T03:00:57.542Z,726.02
2015-12-30T03:01:12.824Z,725.94
2015-12-30T03:01:28.108Z,725.9
2015-12-30T03:01:43.202Z,726.01
2015-12-30T03:01:58.670Z,725.97
2015-12-30T03:02:14.623Z,726.04
2015-12-30T03:02:29.814Z,725.95
2015-12-30T03:02:45.470Z,725.91
2015-12-30T03:03:01.486Z,725.88
2015-12-30T03:03:16.564Z,725.92
2015-12-30T03:03:32.192Z,725.96
2015-12-30T03:03:47.129Z,725.86
2015-12-30T03:04:02.754Z,725.86
2015-12-30T03:04:18.129Z,725.83
2015-12-30T03:04:33.929Z,725.93
2015-12-30T03:04:48.929Z,725.81
2015-12-30T03:05:04.586Z,725.88
2015-12-30T03:05:34.244Z,725.99
2015-12-30T03:05:49.478Z,725.97
2015-12-30T03:06:05.384Z,725.93
2015-12-30T03:06:20.634Z,726
2015-12-30T03:06:36.106Z,725.91
2015-12-30T03:06:51.637Z,725.96
2015-12-30T03:07:07.466Z,725.96
2015-12-30T03:07:23.481Z,725.89
2015-12-30T03:07:38.390Z,725.96
2015-12-30T03:07:54.094Z,725.94
2015-12-30T03:08:09.312Z,725.96
2015-12-30T03:08:34.330Z,725.9
2015-12-30T03:08:49.752Z,725.99
2015-12-30T03:09:05.377Z,725.93
2015-12-30T03:09:20.377Z,725.93
2015-12-30T03:09:35.770Z,725.92
2015-12-30T03:09:51.005Z,725.97
2015-12-30T03:10:06.739Z,725.91
2015-12-30T03:10:22.099Z,725.87
2015-12-30T03:10:37.836Z,726.03
2015-12-30T03:10:53.195Z,725.84
2015-12-30T03:11:09.055Z,726
2015-12-30T03:11:38.385Z,726.01
2015-12-30T03:11:53.838Z,725.96
2015-12-30T03:12:09.088Z,725.89
2015-12-30T03:12:24.510Z,725.92
2015-12-30T03:12:40.763Z,725.97
2015-12-30T03:12:55.888Z,725.88
2015-12-30T03:13:11.513Z,726.07
2015-12-30T03:13:26.763Z,726.02
2015-12-30T03:13:41.766Z,725.98
2015-12-30T03:13:56.844Z,726.02
2015-12-30T03:14:12.110Z,726.01
2015-12-30T03:14:27.594Z,725.97
2015-12-30T03:14:43.159Z,726.06
2015-12-30T03:14:59.159Z,726.04
2015-12-30T03:15:28.659Z,726.03
2015-12-30T03:15:44.037Z,726.02
2015-12-30T03:16:15.991Z,726.02
2015-12-30T03:16:31.850Z,726.04
2015-12-30T03:16:46.103Z,725.99
2015-12-30T03:17:01.103Z,725.98
2015-12-30T03:17:16.290Z,726.01
2015-12-30T03:17:31.915Z,726.02
2015-12-30T03:17:47.667Z,726
2015-12-30T03:18:02.636Z,726.06
2015-12-30T03:18:17.792Z,726.09
2015-12-30T03:18:33.542Z,725.85
2015-12-30T03:18:48.732Z,726.09
2015-12-30T03:19:04.326Z,726.05
2015-12-30T03:19:19.591Z,726.06
2015-12-30T03:19:35.388Z,726.03
2015-12-30T03:19:50.814Z,726.05
2015-12-30T03:20:06.111Z,726.04
2015-12-30T03:20:21.173Z,726.14
2015-12-30T03:20:36.736Z,726.01
2015-12-30T03:20:56.675Z,726.1
2015-12-30T03:21:12.082Z,726
2015-12-30T03:21:26.769Z,726.04
2015-12-30T03:21:42.004Z,726.06
2015-12-30T03:21:57.741Z,726.02
2015-12-30T03:22:12.882Z,725.98
2015-12-30T03:22:28.085Z,726.04
2015-12-30T03:22:43.600Z,726.17
2015-12-30T03:22:58.618Z,726.09
2015-12-30T03:23:13.868Z,726.03
2015-12-30T03:23:29.509Z,726.02
2015-12-30T03:23:44.571Z,726.08
2015-12-30T03:23:59.856Z,726.08
2015-12-30T03:24:15.372Z,726.13
2015-12-30T03:24:31.216Z,726.09
2015-12-30T03:24:46.997Z,726.01
2015-12-30T03:25:02.218Z,726.12